Time;durP1;ratioP1;P1;durP2;ratioP2;P2;SDS_P1;SDS_P2;PMS_P1;PMS_P2;Temp;Humidity;BMP_temperature;BMP_pressure;BME280_temperature;BME280_humidity;BME280_pressure;Samples;Min_cycle;Max_cycle;Signal;HPM_P1;HPM_P2
2023/04/26 00:01:04;;;;;;;1.83;0.83;;;;;;;15.44;79.03;98030.03;4967017;28;20575;-91
2023/04/26 00:03:31;;;;;;;2.07;0.87;;;;;;;15.14;80.79;98027.50;4976327;28;20198;-92
2023/04/26 00:05:58;;;;;;;1.40;0.80;;;;;;;15.17;80.67;98021.97;4947794;28;20204;-90
2023/04/26 00:08:23;;;;;;;1.70;0.83;;;;;;;15.26;79.72;98021.97;4952225;29;20726;-91
2023/04/26 00:10:50;;;;;;;2.30;1.00;;;;;;;15.11;80.11;98014.56;4966600;28;20186;-90
2023/04/26 00:13:17;;;;;;;1.23;0.70;;;;;;;14.96;81.28;98019.41;4974787;28;20191;-90
2023/04/26 00:15:44;;;;;;;2.43;1.00;;;;;;;14.91;81.71;98016.31;4957345;28;20607;-90
2023/04/26 00:18:11;;;;;;;2.43;0.80;;;;;;;15.07;80.44;98016.63;4961240;28;20595;-90
2023/04/26 00:20:38;;;;;;;2.40;0.73;;;;;;;15.17;80.14;98017.50;4981299;28;20179;-90
2023/04/26 00:23:04;;;;;;;1.40;0.80;;;;;;;15.45;78.65;98020.31;4965481;28;20550;-90
2023/04/26 00:25:30;;;;;;;1.00;0.50;;;;;;;15.46;78.88;98016.75;4943193;29;20280;-90
2023/04/26 00:27:57;;;;;;;2.20;0.80;;;;;;;15.33;79.93;98007.25;4974430;28;20190;-89
2023/04/26 00:30:23;;;;;;;1.77;0.70;;;;;;;15.39;79.80;98011.13;4975450;28;20691;-89
2023/04/26 00:32:49;;;;;;;1.77;0.63;;;;;;;15.48;79.05;98002.44;4975360;28;20648;-90
2023/04/26 00:35:16;;;;;;;1.70;0.67;;;;;;;15.61;78.24;97999.50;4975184;28;20531;-91
2023/04/26 00:37:41;;;;;;;10.33;0.80;;;;;;;15.64;77.65;98002.72;4959333;28;20182;-90
2023/04/26 00:40:09;;;;;;;1.20;0.70;;;;;;;15.51;78.15;98001.31;4974976;28;20188;-90
2023/04/26 00:42:38;;;;;;;6.77;2.37;;;;;;;15.53;78.37;98002.84;4949966;28;20188;-91
2023/04/26 00:45:06;;;;;;;2.00;0.93;;;;;;;15.66;77.75;98000.75;4950607;28;20202;-90
2023/04/26 00:47:33;;;;;;;1.40;0.60;;;;;;;15.71;77.38;97998.53;4975089;28;20184;-89
2023/04/26 00:50:07;;;;;;;2.90;0.83;;;;;;;15.59;77.60;98001.47;4958198;28;20605;-89
2023/04/26 00:52:34;;;;;;;1.43;0.73;;;;;;;15.64;77.69;97996.59;4958176;28;20680;-91
2023/04/26 00:55:01;;;;;;;0.80;0.50;;;;;;;15.69;77.44;97997.00;4975042;28;20182;-91
2023/04/26 00:57:28;;;;;;;1.83;0.73;;;;;;;15.73;76.77;97988.66;4957331;28;20601;-90
2023/04/26 00:59:55;;;;;;;2.03;0.60;;;;;;;15.64;77.10;97988.66;4939367;28;20543;-91
2023/04/26 01:02:23;;;;;;;1.67;0.77;;;;;;;15.62;76.90;97995.88;4961913;28;20234;-91
2023/04/26 01:04:50;;;;;;;1.17;0.63;;;;;;;15.53;76.16;97986.16;4957769;28;20243;-89
2023/04/26 01:07:17;;;;;;;3.40;0.60;;;;;;;15.56;75.93;97980.59;4987757;28;20184;-90
2023/04/26 01:09:44;;;;;;;1.27;0.50;;;;;;;15.50;76.27;97975.88;4985385;28;20591;-90
2023/04/26 01:12:12;;;;;;;0.80;0.47;;;;;;;15.47;76.35;97976.16;4957743;28;20190;-89
2023/04/26 01:14:40;;;;;;;1.33;0.53;;;;;;;15.42;76.63;97978.34;4965925;28;20187;-89
2023/04/26 01:17:06;;;;;;;2.20;0.77;;;;;;;15.32;76.83;97983.63;4950551;28;20187;-89
2023/04/26 01:19:36;;;;;;;0.80;0.50;;;;;;;15.36;77.02;97977.91;4974526;28;20267;-89
2023/04/26 01:22:03;;;;;;;1.50;0.77;;;;;;;15.27;77.18;97970.84;4942024;28;20661;-89
2023/04/26 01:24:31;;;;;;;2.00;0.70;;;;;;;15.36;77.26;97979.72;4957166;28;20212;-91
2023/04/26 01:26:58;;;;;;;0.90;0.40;;;;;;;15.44;76.78;97979.03;4963643;28;20181;-91
2023/04/26 01:29:26;;;;;;;1.37;0.60;;;;;;;15.44;76.82;97984.31;4941202;29;20205;-92
2023/04/26 01:31:52;;;;;;;1.53;0.60;;;;;;;15.47;76.09;97981.44;4972006;28;20193;-91
2023/04/26 01:34:19;;;;;;;1.27;0.80;;;;;;;15.48;75.82;97972.53;4954196;28;20672;-91
2023/04/26 01:36:46;;;;;;;1.80;0.77;;;;;;;15.54;75.17;97966.72;4964784;28;20275;-91
2023/04/26 01:39:12;;;;;;;3.53;1.07;;;;;;;15.33;75.76;97965.00;4974448;28;20185;-91
2023/04/26 01:41:39;;;;;;;1.23;0.60;;;;;;;15.35;75.94;97970.16;4973874;28;20176;-92
2023/04/26 01:44:06;;;;;;;1.40;0.67;;;;;;;15.37;76.20;97966.41;4970214;28;20236;-92
2023/04/26 01:46:33;;;;;;;1.77;0.70;;;;;;;15.37;76.10;97973.47;4946290;28;20203;-90
2023/04/26 01:48:58;;;;;;;1.60;0.90;;;;;;;15.43;76.24;97958.91;4973400;28;20199;-91
2023/04/26 01:51:26;;;;;;;1.10;0.60;;;;;;;15.53;76.25;97960.59;4957485;28;20188;-93
2023/04/26 01:53:51;;;;;;;1.33;0.83;;;;;;;15.61;76.13;97958.09;4958526;28;20223;-92
2023/04/26 01:56:22;;;;;;;1.67;0.90;;;;;;;15.69;75.74;97960.03;4974545;28;20271;-91
2023/04/26 01:58:48;;;;;;;1.03;0.60;;;;;;;15.75;75.43;97954.16;4974361;28;20223;-91
2023/04/26 02:01:15;;;;;;;1.07;0.50;;;;;;;15.79;75.28;97950.25;4957621;28;20176;-92
2023/04/26 02:03:40;;;;;;;2.80;1.03;;;;;;;15.87;75.09;97947.75;4974107;28;20191;-92
2023/04/26 02:06:06;;;;;;;1.53;0.80;;;;;;;15.90;74.77;97955.41;4974454;28;20208;-92
2023/04/26 02:08:33;;;;;;;1.40;0.50;;;;;;;15.91;74.85;97964.97;4957542;28;20184;-92
2023/04/26 02:11:00;;;;;;;2.47;0.90;;;;;;;15.95;74.74;97953.16;4978278;28;20192;-90
2023/04/26 02:13:25;;;;;;;1.80;0.80;;;;;;;15.94;75.08;97954.97;4960738;28;20556;-90
2023/04/26 02:15:52;;;;;;;1.20;0.80;;;;;;;15.96;74.88;97955.66;4964794;28;20618;-90
2023/04/26 02:18:20;;;;;;;2.37;0.80;;;;;;;15.96;75.02;97960.94;4977851;28;20229;-90
2023/04/26 02:20:47;;;;;;;4.17;1.87;;;;;;;15.95;75.48;97959.28;4968022;28;20179;-91
2023/04/26 02:23:13;;;;;;;2.80;0.90;;;;;;;15.93;75.41;97963.03;4971799;28;20629;-92
2023/04/26 02:25:40;;;;;;;2.73;1.30;;;;;;;16.00;75.32;97966.78;4953790;28;20214;-90
2023/04/26 02:28:07;;;;;;;2.00;1.00;;;;;;;16.07;75.25;97975.78;4977962;28;20187;-90
2023/04/26 02:30:33;;;;;;;1.30;0.90;;;;;;;16.10;75.29;97970.22;4952469;28;20336;-90
2023/04/26 02:33:01;;;;;;;1.33;0.73;;;;;;;16.06;75.11;97974.16;4952473;28;20590;-91
2023/04/26 02:35:27;;;;;;;2.20;0.83;;;;;;;16.09;75.27;97967.75;4976965;28;20505;-91
2023/04/26 02:37:54;;;;;;;1.53;0.70;;;;;;;16.10;75.36;97964.94;4956866;28;20608;-90
2023/04/26 02:40:21;;;;;;;2.07;0.70;;;;;;;16.23;74.65;97959.31;4964245;28;20181;-90
2023/04/26 02:42:48;;;;;;;1.50;0.80;;;;;;;16.35;73.74;97961.66;4977041;28;20227;-90
2023/04/26 02:45:15;;;;;;;2.47;1.00;;;;;;;16.34;73.25;97949.41;4976913;28;20203;-91
2023/04/26 02:47:41;;;;;;;3.23;0.70;;;;;;;16.37;73.12;97961.50;4944384;28;20222;-90
2023/04/26 02:50:09;;;;;;;2.03;0.70;;;;;;;16.30;73.68;97968.38;4972581;28;20263;-91
2023/04/26 02:52:36;;;;;;;1.27;0.67;;;;;;;16.25;74.18;97963.50;4965942;28;20274;-90
2023/04/26 02:55:06;;;;;;;1.67;0.70;;;;;;;16.26;74.24;97970.47;4959721;28;20176;-90
2023/04/26 02:57:33;;;;;;;1.37;0.70;;;;;;;16.27;74.24;97980.03;4963010;28;20250;-89
2023/04/26 03:00:00;;;;;;;1.50;0.73;;;;;;;16.27;74.46;97980.03;4944173;28;20192;-90
2023/04/26 03:02:26;;;;;;;1.53;0.83;;;;;;;16.28;74.72;97973.78;4959782;28;20226;-90
2023/04/26 03:04:52;;;;;;;1.50;0.90;;;;;;;16.32;74.24;97991.03;4960289;28;20276;-90
2023/04/26 03:07:19;;;;;;;1.00;0.70;;;;;;;16.33;74.44;97989.22;4959733;28;20661;-91
2023/04/26 03:09:46;;;;;;;1.53;0.73;;;;;;;16.31;74.30;97993.81;4959574;28;20191;-90
2023/04/26 03:12:12;;;;;;;2.33;0.73;;;;;;;16.31;74.34;97999.09;4971592;28;20186;-90
2023/04/26 03:14:38;;;;;;;1.10;0.70;;;;;;;16.28;74.52;97997.59;4965285;28;20634;-90
2023/04/26 03:17:05;;;;;;;3.37;0.77;;;;;;;16.28;74.79;97997.59;4969361;28;20192;-91
2023/04/26 03:19:30;;;;;;;1.87;0.80;;;;;;;16.29;74.80;97999.25;4959556;28;20282;-90
2023/04/26 03:21:57;;;;;;;7.30;1.93;;;;;;;16.31;74.53;97994.66;4958908;28;20258;-90
2023/04/26 03:24:22;;;;;;;2.53;0.93;;;;;;;16.32;74.63;98001.63;4959387;28;20533;-91
2023/04/26 03:26:49;;;;;;;19.90;6.50;;;;;;;16.40;74.35;98004.34;4976741;28;20176;-91
2023/04/26 03:29:16;;;;;;;22.87;7.20;;;;;;;16.40;74.14;98003.53;4962705;28;20187;-91
2023/04/26 03:31:43;;;;;;;12.13;3.63;;;;;;;16.36;74.50;98004.78;4957304;28;20621;-92
2023/04/26 03:34:08;;;;;;;4.10;1.40;;;;;;;16.43;73.97;98009.34;4976363;28;20192;-92
2023/04/26 03:36:35;;;;;;;4.67;1.23;;;;;;;16.43;74.12;98003.25;4958109;28;20536;-91
2023/04/26 03:39:01;;;;;;;2.47;0.83;;;;;;;16.35;74.45;98000.50;4959301;28;20190;-91
2023/04/26 03:41:27;;;;;;;2.97;1.20;;;;;;;16.29;74.55;97995.78;4976276;28;20183;-91
2023/04/26 03:43:54;;;;;;;2.33;1.23;;;;;;;16.22;74.82;97998.16;4972018;28;20307;-92
2023/04/26 03:46:20;;;;;;;3.17;1.30;;;;;;;16.20;74.95;97997.47;4959455;28;20202;-92
2023/04/26 03:48:45;;;;;;;2.47;1.00;;;;;;;16.27;74.95;98003.03;4966524;28;20181;-91
2023/04/26 03:51:12;;;;;;;2.70;1.33;;;;;;;16.26;75.06;98007.47;4956764;28;20206;-91
2023/04/26 03:53:37;;;;;;;2.13;0.93;;;;;;;16.24;75.25;97998.03;4973456;28;20705;-91
2023/04/26 03:56:04;;;;;;;4.60;1.20;;;;;;;16.30;74.88;98000.09;4955108;28;20184;-91
2023/04/26 03:58:32;;;;;;;1.80;1.00;;;;;;;16.34;74.97;97996.19;4964382;28;20225;-91
2023/04/26 04:00:59;;;;;;;2.97;0.97;;;;;;;16.35;74.92;97998.66;4976057;28;20202;-91
2023/04/26 04:03:28;;;;;;;1.93;1.00;;;;;;;16.35;75.18;98003.94;4975907;28;20271;-91
2023/04/26 04:05:55;;;;;;;4.87;1.50;;;;;;;16.37;75.04;97998.53;4979966;28;20203;-91
2023/04/26 04:08:21;;;;;;;1.97;1.07;;;;;;;16.36;75.14;97994.22;4969317;28;20172;-92
2023/04/26 04:10:47;;;;;;;9.57;1.57;;;;;;;16.36;75.37;97987.13;4958120;28;20203;-92
2023/04/26 04:13:13;;;;;;;2.00;1.07;;;;;;;16.41;75.70;97990.16;4958583;28;20647;-91
2023/04/26 04:15:39;;;;;;;5.27;1.80;;;;;;;16.41;75.91;97991.97;4958512;28;20199;-91
2023/04/26 04:18:06;;;;;;;4.07;1.80;;;;;;;16.42;76.16;97993.66;4953673;28;20546;-91
2023/04/26 04:20:33;;;;;;;6.93;1.90;;;;;;;16.51;75.94;97983.03;4946979;28;20176;-91
2023/04/26 04:23:03;;;;;;;5.27;2.30;;;;;;;16.54;75.79;97990.69;4957700;28;20196;-91
2023/04/26 04:25:28;;;;;;;5.30;2.07;;;;;;;16.63;75.85;97998.75;4975247;28;20213;-90
2023/04/26 04:27:57;;;;;;;3.37;1.50;;;;;;;16.67;75.68;97997.47;4972696;28;20180;-92
2023/04/26 04:30:25;;;;;;;3.77;1.60;;;;;;;16.71;75.94;98002.34;4958463;28;20216;-92
2023/04/26 04:32:50;;;;;;;3.07;1.37;;;;;;;16.79;76.13;98004.25;4974884;28;20188;-92
2023/04/26 04:35:15;;;;;;;5.93;2.23;;;;;;;16.84;76.03;98002.00;4961942;28;20658;-92
2023/04/26 04:37:42;;;;;;;7.23;2.40;;;;;;;16.85;76.18;98003.66;4957015;28;20184;-92
2023/04/26 04:40:12;;;;;;;8.40;2.33;;;;;;;16.95;75.76;98010.56;4955638;28;20184;-92
2023/04/26 04:42:37;;;;;;;3.50;2.27;;;;;;;16.96;75.41;98006.94;4966501;28;20308;-92
2023/04/26 04:45:04;;;;;;;4.00;2.23;;;;;;;17.02;74.97;98002.88;4967750;28;20211;-91
2023/04/26 04:47:29;;;;;;;5.00;2.43;;;;;;;17.06;75.34;98001.56;4971672;28;20181;-92
2023/04/26 04:49:55;;;;;;;6.50;2.53;;;;;;;17.05;75.15;98007.88;4962764;28;20676;-92
2023/04/26 04:52:21;;;;;;;4.87;2.30;;;;;;;17.10;74.95;98002.97;4951960;28;20181;-91
2023/04/26 04:54:47;;;;;;;3.90;2.30;;;;;;;17.18;74.92;98005.69;4956059;28;20671;-92
2023/04/26 04:57:12;;;;;;;7.10;2.30;;;;;;;17.16;75.29;98002.38;4974312;28;20618;-92
2023/04/26 04:59:40;;;;;;;6.37;3.10;;;;;;;17.21;75.04;98000.09;4955515;28;20200;-92
2023/04/26 05:02:06;;;;;;;8.10;2.80;;;;;;;17.27;74.60;98004.78;4953392;28;20219;-92
2023/04/26 05:04:33;;;;;;;132.87;58.00;;;;;;;17.33;74.28;98004.19;4938742;29;20292;-92
2023/04/26 05:06:59;;;;;;;104.50;45.23;;;;;;;17.40;74.53;98009.72;4973794;28;20220;-91
2023/04/26 05:09:24;;;;;;;33.33;17.10;;;;;;;17.50;74.25;98007.84;4980140;28;20224;-91
2023/04/26 05:11:50;;;;;;;6.87;3.13;;;;;;;17.62;74.13;98014.59;4974835;28;20609;-92
2023/04/26 05:14:15;;;;;;;5.13;2.30;;;;;;;17.70;73.66;98004.91;4958032;28;20180;-92
2023/04/26 05:16:41;;;;;;;4.83;2.60;;;;;;;17.84;73.94;97998.25;4974584;28;20227;-92
2023/04/26 05:19:06;;;;;;;5.00;2.93;;;;;;;18.10;73.80;97991.16;4974205;28;20200;-91
2023/04/26 05:21:32;;;;;;;6.57;3.30;;;;;;;18.40;72.71;97984.53;4956773;28;20665;-92
2023/04/26 05:23:57;;;;;;;4.80;2.80;;;;;;;18.89;72.33;97981.13;4973325;28;20253;-91
2023/04/26 05:26:23;;;;;;;5.20;3.07;;;;;;;19.71;66.16;97975.00;4956278;28;20632;-92
2023/04/26 05:28:48;;;;;;;8.80;3.00;;;;;;;20.13;66.45;97982.78;4956650;28;20249;-90
2023/04/26 05:31:14;;;;;;;5.07;2.10;;;;;;;20.66;65.91;97991.03;4973128;28;20181;-91
2023/04/26 05:33:39;;;;;;;2.47;1.43;;;;;;;20.91;61.49;97989.09;4973063;28;20180;-91
2023/04/26 05:36:05;;;;;;;5.33;1.93;;;;;;;21.18;61.33;97986.00;4974633;28;20520;-91
2023/04/26 05:38:31;;;;;;;2.97;1.60;;;;;;;21.36;60.42;97997.22;4957574;28;20199;-91
2023/04/26 05:40:56;;;;;;;2.93;1.23;;;;;;;21.53;59.62;97997.13;4974827;28;20180;-91
2023/04/26 05:43:22;;;;;;;1.47;0.63;;;;;;;21.33;53.33;97996.75;4980896;28;20620;-91
2023/04/26 05:45:55;;;;;;;1.53;0.70;;;;;;;21.20;54.58;97994.63;4997851;28;20199;-92
2023/04/26 05:48:22;;;;;;;3.07;1.43;;;;;;;21.26;55.67;97996.63;4998096;28;20310;-91
2023/04/26 05:50:48;;;;;;;4.27;0.90;;;;;;;21.28;55.34;97994.59;4962948;28;20196;-92
2023/04/26 05:53:14;;;;;;;1.00;0.50;;;;;;;21.05;55.37;97995.53;4961642;28;20271;-92
2023/04/26 05:55:43;;;;;;;2.13;0.67;;;;;;;21.03;54.62;98002.88;4978400;28;20215;-91
2023/04/26 05:58:09;;;;;;;0.93;0.60;;;;;;;21.18;54.70;97999.31;4961307;28;20255;-91
2023/04/26 06:00:35;;;;;;;2.53;0.93;;;;;;;21.27;54.32;98003.63;4978389;28;20176;-90
2023/04/26 06:03:01;;;;;;;1.23;0.50;;;;;;;21.17;54.02;98002.97;4978740;28;20234;-91
2023/04/26 06:05:27;;;;;;;1.47;0.77;;;;;;;20.99;55.37;98001.56;4961253;28;20210;-92
2023/04/26 06:07:53;;;;;;;2.17;0.60;;;;;;;20.78;56.27;98000.28;4978040;28;20208;-91
2023/04/26 06:10:18;;;;;;;5.80;0.50;;;;;;;20.88;55.75;97989.47;4960996;28;20543;-91
2023/04/26 06:12:44;;;;;;;8.60;3.73;;;;;;;20.99;53.97;97990.91;4961081;28;20188;-91
2023/04/26 06:15:10;;;;;;;3.17;1.43;;;;;;;21.10;52.94;97994.03;4978011;28;20179;-91
2023/04/26 06:17:36;;;;;;;4.93;1.60;;;;;;;21.30;52.62;97995.25;4961026;28;20184;-91
2023/04/26 06:20:03;;;;;;;4.23;1.43;;;;;;;21.51;53.98;97991.16;4977912;28;20187;-91
2023/04/26 06:22:29;;;;;;;3.00;0.80;;;;;;;21.74;52.35;97991.97;4977695;28;20263;-90
2023/04/26 06:24:55;;;;;;;2.00;0.83;;;;;;;21.69;52.31;97989.84;4960872;28;20208;-91
2023/04/26 06:27:20;;;;;;;1.30;0.67;;;;;;;21.70;50.61;97986.16;4977258;28;20199;-90
2023/04/26 06:29:46;;;;;;;3.23;0.70;;;;;;;21.43;49.97;97990.16;4977738;28;20311;-91
2023/04/26 06:32:12;;;;;;;1.67;0.67;;;;;;;21.49;49.76;97988.63;4977685;28;20630;-92
2023/04/26 06:34:37;;;;;;;2.50;1.30;;;;;;;21.47;47.40;97989.81;4988544;28;20180;-90
2023/04/26 06:37:06;;;;;;;2.07;0.80;;;;;;;21.58;52.10;97987.59;4997295;28;20184;-91
2023/04/26 06:39:31;;;;;;;1.67;0.80;;;;;;;21.82;48.39;97989.25;4971138;28;20177;-92
2023/04/26 06:41:57;;;;;;;1.53;0.80;;;;;;;21.82;48.69;97989.25;4978102;28;20187;-92
2023/04/26 06:44:23;;;;;;;2.20;1.03;;;;;;;21.63;48.38;97993.22;4960767;28;20295;-91
2023/04/26 06:46:48;;;;;;;2.53;0.93;;;;;;;21.52;51.44;97998.13;4977422;28;20596;-91
2023/04/26 06:49:14;;;;;;;1.83;1.07;;;;;;;21.35;52.87;97998.25;4977832;28;20219;-91
2023/04/26 06:51:40;;;;;;;2.27;0.80;;;;;;;21.43;49.30;97995.50;4977384;28;20259;-90
2023/04/26 06:54:05;;;;;;;2.20;1.13;;;;;;;21.74;50.65;98003.47;4960282;28;20203;-90
2023/04/26 06:56:31;;;;;;;2.00;1.10;;;;;;;22.09;51.24;97995.88;4960219;28;20195;-91
2023/04/26 06:59:02;;;;;;;2.13;1.10;;;;;;;22.40;46.86;98000.09;4960278;28;20634;-90
2023/04/26 07:01:28;;;;;;;3.73;1.30;;;;;;;22.50;nan;98005.16;4976362;28;20200;-91
2023/04/26 07:03:58;;;;;;;1.90;0.87;;;;;;;22.73;46.05;97989.91;4996566;28;20226;-90
2023/04/26 07:06:23;;;;;;;4.30;1.00;;;;;;;22.85;46.62;97996.41;4996972;28;20609;-91
2023/04/26 07:08:50;;;;;;;2.13;0.77;;;;;;;22.83;47.06;98000.28;4981719;28;20275;-91
2023/04/26 07:11:15;;;;;;;1.90;1.20;;;;;;;22.82;47.26;98012.00;4959949;28;20551;-91
2023/04/26 07:13:40;;;;;;;2.80;1.33;;;;;;;23.03;47.64;98007.59;4976805;28;20180;-91
2023/04/26 07:16:06;;;;;;;2.27;1.10;;;;;;;23.15;44.67;97998.06;4977150;28;20227;-90
2023/04/26 07:18:34;;;;;;;2.63;1.23;;;;;;;22.93;44.06;98000.88;4976703;28;20176;-91
2023/04/26 07:20:59;;;;;;;2.03;1.03;;;;;;;22.77;43.91;98001.06;4959883;28;20279;-92
2023/04/26 07:23:31;;;;;;;2.00;1.13;;;;;;;22.51;46.47;98002.28;4977128;28;20204;-92
2023/04/26 07:26:30;;;;;;;2.10;1.10;;;;;;;22.72;47.50;97992.75;4960057;28;20208;-92
2023/04/26 07:28:55;;;;;;;3.20;1.40;;;;;;;22.93;47.67;97993.66;4952197;28;20192;-90
2023/04/26 07:31:21;;;;;;;2.50;1.00;;;;;;;22.97;46.53;97988.78;4959597;28;20191;-91
2023/04/26 07:33:48;;;;;;;3.63;1.83;;;;;;;22.93;46.39;97990.19;4976656;28;20323;-91
2023/04/26 07:36:14;;;;;;;2.43;1.10;;;;;;;22.97;46.32;97994.13;4959728;28;20204;-91
2023/04/26 07:38:40;;;;;;;2.50;1.70;;;;;;;23.10;46.67;97994.28;4959886;28;20180;-92
2023/04/26 07:41:05;;;;;;;2.70;1.60;;;;;;;23.21;46.67;97991.97;4959296;28;20188;-92
2023/04/26 07:43:31;;;;;;;5.53;1.27;;;;;;;23.28;46.04;97984.00;4964789;28;20195;-90
2023/04/26 07:46:03;;;;;;;2.70;1.30;;;;;;;23.17;44.77;97989.84;4978510;28;20204;-90
2023/04/26 07:48:29;;;;;;;2.27;1.37;;;;;;;22.97;44.28;98000.28;4978486;28;20334;-89
2023/04/26 07:50:54;;;;;;;3.80;1.10;;;;;;;22.92;46.41;97999.19;4977330;28;20203;-89
2023/04/26 07:53:21;;;;;;;3.83;1.90;;;;;;;22.84;46.13;98007.31;4959279;28;20512;-89
2023/04/26 07:55:46;;;;;;;2.37;1.20;;;;;;;22.67;45.29;98005.84;4958889;28;20177;-91
2023/04/26 07:58:13;;;;;;;2.13;1.23;;;;;;;22.40;43.89;98010.78;4976825;28;20181;-89
2023/04/26 08:00:39;;;;;;;6.60;1.90;;;;;;;22.33;46.43;98007.16;4976069;28;20179;-90
2023/04/26 08:03:05;;;;;;;3.50;1.73;;;;;;;22.30;45.29;98004.84;4976164;28;20633;-90
2023/04/26 08:05:30;;;;;;;3.30;1.93;;;;;;;22.32;45.92;98008.19;4969454;28;20191;-90
2023/04/26 08:07:56;;;;;;;2.20;1.20;;;;;;;22.43;45.39;97998.91;4994744;28;20212;-90
2023/04/26 08:10:21;;;;;;;2.00;1.13;;;;;;;22.62;46.69;97993.84;4995788;28;20261;-90
2023/04/26 08:12:47;;;;;;;4.53;2.13;;;;;;;22.71;45.66;98001.78;4987268;28;20184;-89
2023/04/26 08:15:12;;;;;;;2.90;1.60;;;;;;;22.73;44.62;97999.75;4975645;28;20176;-90
2023/04/26 08:17:38;;;;;;;3.40;1.30;;;;;;;22.77;45.92;97998.38;4958623;28;20194;-89
2023/04/26 08:20:04;;;;;;;2.70;1.07;;;;;;;22.97;45.19;97994.94;4976436;28;20190;-90
2023/04/26 08:22:32;;;;;;;1.50;0.63;;;;;;;23.21;46.22;98001.84;4983226;28;20175;-91
2023/04/26 08:24:58;;;;;;;2.30;1.20;;;;;;;23.46;47.82;98003.16;4994858;28;20768;-90
2023/04/26 08:27:23;;;;;;;2.50;1.10;;;;;;;23.09;47.69;98000.63;4994917;28;20180;-90
2023/04/26 08:29:49;;;;;;;1.47;0.80;;;;;;;23.46;46.23;97989.78;4995032;28;20186;-89
2023/04/26 08:32:14;;;;;;;3.03;1.50;;;;;;;23.80;42.98;97989.94;4977669;28;20183;-89
2023/04/26 08:34:48;;;;;;;3.30;1.30;;;;;;;24.02;42.42;97993.44;4994698;28;20194;-91
2023/04/26 08:37:14;;;;;;;2.77;1.50;;;;;;;23.62;44.94;97984.19;4978801;28;20194;-89
2023/04/26 08:40:10;;;;;;;4.37;1.87;;;;;;;23.76;46.01;97982.50;4975094;28;20546;-92
2023/04/26 08:42:41;;;;;;;2.57;1.60;;;;;;;23.99;43.27;97988.47;4975671;28;20228;-89
2023/04/26 08:45:07;;;;;;;2.17;0.93;;;;;;;24.08;43.65;97986.47;4975029;28;20192;-89
2023/04/26 08:47:43;;;;;;;2.33;1.20;;;;;;;24.24;41.70;97984.38;4958031;28;20180;-90
2023/04/26 08:50:11;;;;;;;2.27;1.20;;;;;;;23.64;41.14;97984.84;4955710;28;20256;-89
2023/04/26 08:52:39;;;;;;;2.17;1.20;;;;;;;23.35;42.65;97984.91;4955727;28;20185;-89
2023/04/26 08:55:08;;;;;;;2.60;1.50;;;;;;;23.66;43.44;97976.63;4965046;28;20195;-89
2023/04/26 08:57:34;;;;;;;2.43;1.33;;;;;;;23.36;43.73;97975.03;4975291;28;20184;-90
2023/04/26 09:00:04;;;;;;;1.60;1.03;;;;;;;23.74;41.79;97981.88;4957844;28;20272;-90
2023/04/26 09:02:30;;;;;;;2.47;1.17;;;;;;;23.10;46.31;97978.25;4974800;28;20191;-90
2023/04/26 09:04:56;;;;;;;1.73;1.17;;;;;;;23.50;44.19;97982.22;4951478;29;20211;-91
2023/04/26 09:07:29;;;;;;;3.33;1.30;;;;;;;23.62;42.66;97978.84;4973866;28;20263;-89
2023/04/26 09:09:57;;;;;;;2.90;1.30;;;;;;;23.64;41.99;97981.31;4974862;28;20192;-89
2023/04/26 09:12:22;;;;;;;2.20;1.13;;;;;;;23.63;41.40;97988.56;4968681;28;20271;-89
2023/04/26 09:14:48;;;;;;;2.60;1.37;;;;;;;23.43;41.21;97982.16;4955368;28;20260;-89
2023/04/26 09:17:31;;;;;;;2.77;1.20;;;;;;;23.41;40.97;97984.19;4938367;29;20177;-89
2023/04/26 09:19:58;;;;;;;3.00;1.40;;;;;;;23.37;39.70;97984.75;4937503;29;20220;-89
2023/04/26 09:22:34;;;;;;;2.40;0.97;;;;;;;23.55;41.86;97980.66;4938283;29;20177;-89
2023/04/26 09:25:02;;;;;;;1.73;1.00;;;;;;;23.63;40.47;97979.69;4954900;28;20197;-89
2023/04/26 09:27:44;;;;;;;1.60;1.10;;;;;;;23.69;42.61;97973.56;4955252;28;20634;-89
2023/04/26 09:30:16;;;;;;;2.40;1.10;;;;;;;24.04;41.18;97969.13;4935967;29;20189;-89
2023/04/26 09:32:44;;;;;;;1.70;1.07;;;;;;;24.27;42.54;97975.09;4954133;28;20637;-90
2023/04/26 09:35:37;;;;;;;2.70;1.50;;;;;;;24.62;39.90;97966.09;4954030;28;20181;-89
2023/04/26 09:38:11;;;;;;;2.17;1.03;;;;;;;24.85;38.42;97958.59;4946435;28;20212;-90
2023/04/26 09:40:43;;;;;;;2.27;1.10;;;;;;;24.87;38.57;97964.59;4954244;28;20181;-89
2023/04/26 09:43:10;;;;;;;2.67;1.20;;;;;;;24.77;38.52;97955.22;4953732;28;20212;-89
2023/04/26 09:45:50;;;;;;;2.80;1.20;;;;;;;24.53;37.39;97953.06;4953866;28;20658;-90
2023/04/26 09:48:24;;;;;;;2.10;1.10;;;;;;;24.71;39.64;97943.44;4954046;28;20208;-89
2023/04/26 09:54:46;;;;;;;1.87;0.90;;;;;;;25.10;38.50;97933.97;4921272;28;20197;-91
2023/04/26 10:00:36;;;;;;;;;;;;;;;;;;;;;
2023/04/26 10:16:46;;;;;;;2.23;1.33;;;;;;;24.85;36.57;97923.75;4802311;29;20646;-91
2023/04/26 10:31:07;;;;;;;;;;;;;;;;;;;;;
2023/04/26 10:34:20;;;;;;;2.23;1.30;;;;;;;24.62;39.72;97925.06;4919278;29;20557;-92
2023/04/26 10:37:31;;;;;;;2.27;1.10;;;;;;;24.45;38.71;97925.38;4902080;29;20182;-93
2023/04/26 10:54:29;;;;;;;2.43;1.33;;;;;;;23.98;40.96;97951.19;4875253;29;20195;-92
2023/04/26 10:56:57;;;;;;;2.07;1.30;;;;;;;23.35;40.75;97946.66;4881233;29;20186;-93
2023/04/26 10:59:26;;;;;;;2.50;1.10;;;;;;;22.84;40.63;97951.19;4926407;29;20275;-91
2023/04/26 11:01:51;;;;;;;2.60;1.40;;;;;;;22.88;42.06;97952.47;4941185;29;20177;-92
2023/04/26 11:04:17;;;;;;;3.03;1.53;;;;;;;22.54;44.74;97958.34;4938389;29;20174;-91
2023/04/26 11:06:53;;;;;;;2.63;1.20;;;;;;;22.13;44.98;97971.31;4941230;29;20177;-90
2023/04/26 11:09:38;;;;;;;2.37;1.30;;;;;;;21.64;46.04;97964.72;4941097;29;20640;-92
2023/04/26 11:12:54;;;;;;;3.17;1.67;;;;;;;21.43;45.91;97968.84;4941029;29;20596;-91
2023/04/26 11:15:25;;;;;;;3.00;1.23;;;;;;;21.56;47.58;97964.78;4957724;29;20188;-92
2023/04/26 11:18:01;;;;;;;;;;;;;;;;;;;;;
2023/04/26 11:20:47;;;;;;;4.23;1.80;;;;;;;21.17;51.25;97965.66;4958636;29;20164;-91
2023/04/26 11:23:13;;;;;;;2.60;1.53;;;;;;;21.03;52.56;97963.75;4940865;29;20200;-92
2023/04/26 11:25:41;;;;;;;2.43;1.50;;;;;;;20.84;51.11;97964.16;4940793;29;20205;-91
2023/04/26 11:28:09;;;;;;;2.47;1.13;;;;;;;20.53;51.32;97968.59;4957896;29;20184;-90
2023/04/26 11:30:35;;;;;;;2.00;1.00;;;;;;;20.20;51.10;97963.31;4940379;29;20199;-91
2023/04/26 11:33:04;;;;;;;5.17;1.50;;;;;;;19.79;52.38;97969.69;4940796;29;20185;-91
2023/04/26 11:35:34;;;;;;;7.37;1.63;;;;;;;19.55;53.17;97957.22;4957788;29;20173;-90
2023/04/26 11:38:04;;;;;;;4.53;1.30;;;;;;;19.35;53.56;97973.63;4944325;29;20268;-91
2023/04/26 11:40:40;;;;;;;3.87;1.40;;;;;;;18.75;54.08;97971.13;4938082;29;20265;-93
2023/04/26 11:43:08;;;;;;;5.57;1.50;;;;;;;18.54;54.97;97976.00;4948483;29;20183;-93
2023/04/26 11:45:40;;;;;;;2.70;1.47;;;;;;;18.51;54.53;97965.72;4957365;29;20237;-92
2023/04/26 11:48:12;;;;;;;2.87;1.20;;;;;;;18.41;54.79;97964.97;4940292;29;20165;-94
2023/04/26 11:50:41;;;;;;;2.10;1.20;;;;;;;18.37;54.29;97964.44;4940389;29;20169;-93
2023/04/26 11:53:07;;;;;;;3.70;1.53;;;;;;;18.25;55.84;97960.41;4924825;29;20194;-90
2023/04/26 11:55:34;;;;;;;2.43;1.20;;;;;;;18.21;55.43;97963.53;4902660;29;20179;-90
2023/04/26 11:58:07;;;;;;;2.97;1.00;;;;;;;18.19;56.04;97961.03;4902296;29;20186;-92
2023/04/26 12:00:33;;;;;;;2.53;1.40;;;;;;;18.09;57.00;97960.31;4902189;29;20178;-91
2023/04/26 12:03:29;;;;;;;2.73;1.20;;;;;;;18.05;56.90;97958.13;4928563;29;20185;-91
2023/04/26 12:05:55;;;;;;;1.60;0.70;;;;;;;17.75;58.38;97954.94;4946057;29;20217;-92
2023/04/26 12:08:26;;;;;;;1.90;0.87;;;;;;;17.89;57.14;97963.31;4939822;29;20264;-93
2023/04/26 12:11:00;;;;;;;2.10;1.00;;;;;;;17.79;57.78;97958.91;4939472;29;20192;-92
2023/04/26 12:13:30;;;;;;;1.53;0.70;;;;;;;18.00;58.64;97966.56;4957001;29;20174;-92
2023/04/26 12:15:56;;;;;;;8.43;1.00;;;;;;;17.92;59.45;97957.72;4957286;28;20176;-92
2023/04/26 12:18:29;;;;;;;2.23;1.00;;;;;;;18.03;59.86;97963.56;4956634;28;20682;-92
2023/04/26 12:20:57;;;;;;;4.40;1.50;;;;;;;18.09;60.75;97954.16;4956658;29;20185;-89
2023/04/26 12:23:23;;;;;;;2.40;0.90;;;;;;;17.90;62.73;97967.63;4939163;29;20654;-91
2023/04/26 12:25:53;;;;;;;2.17;1.20;;;;;;;17.75;63.04;97965.53;4956041;28;20204;-90
2023/04/26 12:28:19;;;;;;;5.00;0.93;;;;;;;17.97;63.12;97963.38;4956184;28;20293;-88